Timeline UpdatesTrip UpdatesNews PostsPvt PostsTravel TipsAdmin PostsConv PostsFollowed PostsChat RequestsBlog PostsPNR Posts

Disclaimer
Search
 
 
Tue Sep 16, 2014 16:58:17 ISTHomeTrainsΣChainsAtlasPNRForumGalleryNewsFAQTripsMembersLoginFeedback
No Recent News for this Train
Other Trains in the News **new
Latest...
Cancelled from 04.01.2013 to 17.02.2013
Sat Jan 05, 2013 (01:09AM)
⇐ Return Journey: Train# 54642

54641/Delhi Firozpur Passenger (UnReserved)

Time-Table HAS CHANGED.
Sep 03 (1:36PM)
Change Departure Station:
Change Arrival Station:
Post a Train Travel TipPost a Train Travel Tip **new
Post a Comment/Question/Picture/VideoPost a Comment/Question/Picture/Video
Pantry/Catering
✕ NO Pantry Car
✕ NO Catering
RSA - Rake Sharing
Rake Sharing With 14629/30 FZR-LDH Satluj Express and 14601/02 SGNR-FZR Express
Rake/Coach Composition
LOCO-SLRD-GS-GS-GS-GS-GS-GS-GS-GS-GS-GS-GS-GS-GS-GS-SLRD
Loco
TKD WDP-1
News    PNR    Forum    Time-Table    Availability    Fare Chart    Map    Arr/Dep History    Trips    Gallery    ΣChains    X/O    Timeline    
Travel Time: 10h 10m    42 halts    Distance: 316 km    Avg Speed: 31 km/hr
Type: Passenger
Zone: NR/Northern
Departs @ 09:15 (Avg 32m late)
Platform# ???
SMTWTFS
Rohtak Junction/ROK 
Arrives @ 19:25 (Avg 5m late)
Platform# 1
SMTWTFS
Firozpur Cantt. Junction/FZR 

42 halts. 43 intermediate Stations between Rohtak Junction and Firozpur Cantt. Junction

Show ALL intermediate Stations  Show Old Time-Table

#CodeStation NameX/OArrivesAvgDepartsAvgHaltPFDay#KmSpeedElevZoneAddress
1DLIOld Delhi Junction (16)  -07:10+221-70.013219mNRNear Chandni Chowk Metro Station, Delhi NCT
2DKZDelhi KishanGanj (2)  07:23+907:25+82m--1-67.234220mNRSarai Rohilla, Delhi NCT
3VVKPVivekanand Puri Halt (2)  07:30 07:28-07:31 07:29-1m--1-65.518223mNRSarai Rohilla, Delhi NCT
4DBSIDayabasti (2)  07:35 07:33+707:36 07:34+71m--1-64.335225mNRZakhira, Delhi NCT
5SSBShakur BastiX  07:42 07:41+807:44 07:43+92m--1-60.242216mNRPitampura, Delhi NCT
6MGLPMangolpuri  07:49-07:51 07:50-2 1m--1-55.939217mNROutter Ring Rd, Delhi NCT
7NNONangloiX  07:56 07:55+2107:57 07:56+211m--1-52.743219mNRJJ Colony No 1, Delhi NCT
8MQCMundka  08:02 08:00-08:03 08:01-1m--1-49.936215mNRMundka, Delhi NCT
9GHEGhevraX  08:08 08:06+2208:09 08:08+221 2m--1-46.966214mNRGhevra, Delhi NCT
10BGZBahadurgarhX  08:14+2608:15+261m--1-40.260220mNRBahadurgarh, Haryana
11ASEAsaudah  08:21 08:23+3108:22 08:24+321m--1-32.252216mNRDelhi-Rohtak Corridor, Haryana
12ROHNRohed Nagar HaltX  08:29 08:30-08:30 08:31-1m--1-26.946220mNRDelhi-Rohtak Corridor, Haryana
13SPZSampla  08:37+3308:38+331m--1-22.335222mNRSampla, Haryana
14ISMIsmaila HaryanaX  08:44-08:45-1m--1-18.859221mNRNational Highway 10, Haryana
15KRZKharawar  08:52+3308:53+331m--1-11.970222mNRKharawar, Haryana
16ABOAsthal Bohar Junction (4)X  08:58+3509:00+342m--1-6.137223mNRRohtak, Haryana
17ROK»Rohtak Junction (3)»X  09:10+3109:15+325m--10.063220mNRRohtak, Haryana
18SMFSamar Gopalpur  09:25+3909:26+391m--110.666223mNRNH 71, Haryana
19KHVKarainthi  09:33+4009:34+401m--118.333222mNRNH 71, Haryana
20KZHKila ZafargarhX  09:48+3909:49+391m--126.054223mNRNH 71, Haryana
21JNAJulana  09:55+3909:56+391m--131.445226mNRJulana, Haryana
22JJTJai Jai Wanti  10:04+3910:05+391m--137.562227mNRJind, Haryana
23KIUKinanaX  10:12+3910:13+391m--144.736225mNRBrarkhera, Haryana
24BSPHBishanpur HaryanaX  10:22+3710:23+371m--150.019226mNRBishanpur, Haryana
25JINDJind Junction (3)  10:45+3111:00+2315m--157.161222mNR126102., Haryana
26BZOBarsola  11:09+2611:10+261m--166.258224mNRDistrict Jind, Haryana
27UCAUchana  11:20+2811:21+291m--175.853225mNRDistrict Jind, Haryana
28GSOGhaso  11:30+2911:31+291m--183.822231mNRDistrict Jind, Haryana
29NRWNarwana Junction (4)  11:43 11:51+2411:50 11:53+217 2m--191.051235mNRWay to Narwana, Haryana
30DHYDharodi  11:57 12:02+2611:58 12:03+261m--198.654233mNRMDR 111, Haryana
31DTNDhamtan Sahib  12:06 12:11+2612:07 12:12+261m--1105.842234mNRJind District, Haryana
32KLWNKalwan new halt!!  12:18-12:19-1m--1110.055229mNRMDR 111, Haryana
33TUNTohana (2)  12:21 12:26+2012:22 12:27+211m--1116.432232mNRTohana, Haryana
34HMQHimmatpura  12:29 12:34+2412:30 12:35+241m--1120.234228mNRTohana, Haryana
35JHLJakhal JunctionX  12:50+1813:05+1515m--1128.762225mNRJakhal, Haryana
36KAGRKagangarh new halt!!  13:14-13:15-1m--1137.943226mNRMDR 102, Punjab
37BRZBareta  13:22+1713:23+181m--1142.951223mNRBareta, Punjab
38DTWDatewas  13:32-13:33-1m--1150.658225mNRBareta, Punjab
39BLZBudhlada  13:41+1613:42+181m--1158.352223mNRBudhlada, Punjab
40NPXNarindarpura  13:51+1713:52+171m--1166.063224mNRMansa, Punjab
41MSZMansa  14:00+1414:01+151m--1174.429222mNRMansa, Punjab
42SSZSadda Singhwala (1)  14:14+1614:15+181m11180.628216mNRState Highway 12A, Punjab
43KTKLKotli Kalan  14:20-14:21-1m--1183.076219mNRState Highway 12A, Punjab
44MAURMaur  14:29+1814:30+191m--1193.134220mNRMaur Mandi, Punjab
45MASKMaisar KhanaX  14:45+1614:46+191m--1201.553215mNRState Highway 12A, Punjab
46KTFKot Fatteh  14:54+2014:55+201m--1208.672213mNRBathinda, Punjab
47KZWKatar Singhwala  15:04+2015:05+201m--1219.422211mNRState Highway 17, Punjab
48BTIBathinda Junction (6)X  15:30+1117:15 17:05+5105 95m51228.667208mNRBathinda, Punjab
49GNAGoneana Bhai Jagta (3)  17:26 17:16+617:28 17:18+82m--1240.949206mNRGoniana, Punjab
50CBXChand BhanX  17:37 17:27+717:38 17:28+111m--1248.358211mNRJaitu, Punjab
51GJUTGangsar Jaitu (3)  17:45 17:35+1217:47 17:37+162m--1255.157207mNRJaitu, Punjab
52AJTMAjitgill Matta (1)  17:52 17:42-17:53 17:43-1m11259.841209mNRKotkapura Jaitu Rd, Punjab
53RLSRomana Albel Singh (1)  17:58 17:48+1617:59 17:49+181m11263.255208mNRKotkapura Jaitu Rd, Punjab
54KKPKot Kapura Junction (3)  18:04 17:58+1618:08 18:02+154m11271.4630mNRKotkapura, Punjab
55GZSGiani Zail Singh SandhwanX  18:16 18:06+1918:18 18:08+202m--1275.564210mNRDistt Faridkot, Punjab
56FDKFaridkot (3)  18:31 18:16+1918:33 18:18+242m--1284.152202mNRFaridkot, Punjab
57PKZPipli Pakhi Kalan  18:41 18:25-18:42 18:26-1m--1290.163200mNRFaridkot, Punjab
58GHAGolehwala  18:49 18:33+2018:51 18:35+232m--1297.543201mNRGolehwala, Punjab
59KBUKasu Begu  19:00 18:46+2119:02 18:48+222m--1305.418198mNRKasu Begu, Punjab
60FZR•Firozpur Cantt. Junction (5)•  19:35 19:25+5-11316.4-200mNRFirozpur Cantt 152001, Punjab
Scroll to Top
Scroll to Bottom